Maestro Sea — V7ET4 — position and weather

sailwx.info

Track history (hours):
 
Tides and Currents Weather Stations Pressure Air Temp Water Temp Dewpoint Dewpoint Depression Visibility Wind Speed Wind Dir Waves Ship Positions

Maestro Sea

Last reported at 2017-Nov-14 18:05 UTC. Time now 2017-Nov-25 09:54 UTC.
Position N 37°24' W 000°44'.
Warning: this ship's position is 10 days out of date.

Length 160 m; draft 4.6 m.

Type: Ship (hazmat cat A). MMSI: 538001859.

Date/timePositionNaut miles runAvg speedWind from/ knotsBaromVisibWave heightAir tempDewpointWater temp
2017-Nov-14 18:05N 37°24' W 000°44'23113.0
2017-Nov-14 00:22N 36°00' W 005°13'616.3
2017-Nov-14 00:00N 35°59' W 005°20'  
2017-Nov-10 16:36N 28°32' W 014°58'1 8.7
2017-Nov-10 16:29N 28°31' W 014°59'4 9.1
2017-Nov-10 16:00N 28°28' W 015°02'510.0
2017-Nov-10 15:30N 28°24' W 015°06'510.4
2017-Nov-10 15:00N 28°20' W 015°10'510.4
2017-Nov-10 14:30N 28°16' W 015°14'510.7
2017-Nov-10 14:00N 28°12' W 015°18'510.4
2017-Nov-10 13:30N 28°08' W 015°22'3 6.2
2017-Nov-10 13:00N 28°09' W 015°25'0 0.3
2017-Nov-10 12:29N 28°09' W 015°25'0 0.0
2017-Nov-10 11:53N 28°09' W 015°25'0 0.0
2017-Nov-10 11:30N 28°09' W 015°25'0 0.0
2017-Nov-10 10:24N 28°09' W 015°25'0 0.0
2017-Nov-10 09:46N 28°09' W 015°25'0 0.0
2017-Nov-10 09:13N 28°09' W 015°25'0 0.0
2017-Nov-10 08:58N 28°09' W 015°25'0 0.0
2017-Nov-10 08:23N 28°09' W 015°25'0 0.0
2017-Nov-10 07:59N 28°09' W 015°25'0 0.0
2017-Nov-10 07:23N 28°09' W 015°25'0 0.0
2017-Nov-10 06:57N 28°09' W 015°25'0 0.8
2017-Nov-10 06:30N 28°08' W 015°25'2 3.9
2017-Nov-10 06:01N 28°07' W 015°23'3 6.5
2017-Nov-10 05:30N 28°11' W 015°22'5 9.9
2017-Nov-10 05:00N 28°14' W 015°26'510.3
2017-Nov-10 04:30N 28°16' W 015°32'510.1
2017-Nov-10 04:00N 28°18' W 015°37'  
Track history (hours):
 
Tides and Currents Weather Stations Pressure Air Temp Water Temp Dewpoint Dewpoint Depression Visibility Wind Speed Wind Dir Waves Ship Positions

Maestro Sea

Last reported at 2017-Nov-14 18:05 UTC. Time now 2017-Nov-25 09:54 UTC.
Position N 37°24' W 000°44'.
Warning: this ship's position is 10 days out of date.

Length 160 m; draft 4.6 m.

Type: Ship (hazmat cat A). MMSI: 538001859.

Date/timePositionNaut miles runAvg speedWind from/ knotsBaromVisibWave heightAir tempDewpointWater temp
2017-Nov-14 18:05N 37°24' W 000°44'23113.0
2017-Nov-14 00:22N 36°00' W 005°13'616.3
2017-Nov-14 00:00N 35°59' W 005°20'  
2017-Nov-10 16:36N 28°32' W 014°58'1 8.7
2017-Nov-10 16:29N 28°31' W 014°59'4 9.1
2017-Nov-10 16:00N 28°28' W 015°02'510.0
2017-Nov-10 15:30N 28°24' W 015°06'510.4
2017-Nov-10 15:00N 28°20' W 015°10'510.4
2017-Nov-10 14:30N 28°16' W 015°14'510.7
2017-Nov-10 14:00N 28°12' W 015°18'510.4
2017-Nov-10 13:30N 28°08' W 015°22'3 6.2
2017-Nov-10 13:00N 28°09' W 015°25'0 0.3
2017-Nov-10 12:29N 28°09' W 015°25'0 0.0
2017-Nov-10 11:53N 28°09' W 015°25'0 0.0
2017-Nov-10 11:30N 28°09' W 015°25'0 0.0
2017-Nov-10 10:24N 28°09' W 015°25'0 0.0
2017-Nov-10 09:46N 28°09' W 015°25'0 0.0
2017-Nov-10 09:13N 28°09' W 015°25'0 0.0
2017-Nov-10 08:58N 28°09' W 015°25'0 0.0
2017-Nov-10 08:23N 28°09' W 015°25'0 0.0
2017-Nov-10 07:59N 28°09' W 015°25'0 0.0
2017-Nov-10 07:23N 28°09' W 015°25'0 0.0
2017-Nov-10 06:57N 28°09' W 015°25'0 0.8
2017-Nov-10 06:30N 28°08' W 015°25'2 3.9
2017-Nov-10 06:01N 28°07' W 015°23'3 6.5
2017-Nov-10 05:30N 28°11' W 015°22'5 9.9
2017-Nov-10 05:00N 28°14' W 015°26'510.3
2017-Nov-10 04:30N 28°16' W 015°32'510.1
2017-Nov-10 04:00N 28°18' W 015°37'  

Dump ship's entire track history